createdAt,value
2019-04-30T00:01:58.952Z,7.77
2019-04-30T00:04:40.214Z,7.69
2019-04-30T00:07:10.359Z,7.68
2019-04-30T00:09:40.888Z,7.64
2019-04-30T00:12:11.751Z,7.58
2019-04-30T00:14:48.084Z,7.53
2019-04-30T00:17:20.157Z,7.52
2019-04-30T00:19:55.985Z,7.48
2019-04-30T00:22:31.752Z,7.48
2019-04-30T00:24:56.203Z,7.45
2019-04-30T00:27:30.194Z,7.43
2019-04-30T00:30:00.416Z,7.39
2019-04-30T00:32:31.021Z,7.35
2019-04-30T00:35:01.892Z,7.28
2019-04-30T00:37:32.378Z,7.24
2019-04-30T00:40:05.600Z,7.19
2019-04-30T00:42:36.283Z,7.09
2019-04-30T00:45:09.963Z,7.08
2019-04-30T00:47:46.474Z,7.06
2019-04-30T00:50:15.283Z,7.08
2019-04-30T00:52:45.785Z,7.07
2019-04-30T00:55:16.461Z,7.02
2019-04-30T00:57:47.590Z,6.96
2019-04-30T01:00:25.350Z,6.96
2019-04-30T01:03:07.879Z,6.95
2019-04-30T01:05:35.263Z,6.97
2019-04-30T01:08:07.100Z,6.95
2019-04-30T01:10:37.726Z,6.94
2019-04-30T01:13:11.980Z,6.92
2019-04-30T01:15:44.042Z,6.88
2019-04-30T01:18:12.552Z,6.87
2019-04-30T01:20:43.055Z,6.90
2019-04-30T01:23:15.892Z,6.89
2019-04-30T01:25:49.953Z,6.87
2019-04-30T01:28:22.746Z,6.85
2019-04-30T01:30:53.845Z,6.80
2019-04-30T01:33:22.799Z,6.77
2019-04-30T01:35:53.625Z,6.67
2019-04-30T01:38:24.106Z,6.59
2019-04-30T01:40:55.610Z,6.57
2019-04-30T01:43:31.549Z,6.56
2019-04-30T01:46:01.975Z,6.52
2019-04-30T01:48:30.449Z,6.47
2019-04-30T01:51:01.280Z,6.44
2019-04-30T01:53:31.718Z,6.36
2019-04-30T01:56:33.156Z,6.30
2019-04-30T01:59:09.178Z,6.27
2019-04-30T02:01:41.615Z,6.20
2019-04-30T02:04:12.534Z,6.10
2019-04-30T02:06:43.006Z,6.01
2019-04-30T02:09:13.428Z,5.89
2019-04-30T02:11:43.906Z,5.80
2019-04-30T02:14:23.895Z,5.69
2019-04-30T02:16:54.383Z,5.52
2019-04-30T02:19:24.853Z,5.47
2019-04-30T02:21:55.332Z,5.42
2019-04-30T02:24:25.815Z,5.37
2019-04-30T02:27:04.213Z,5.26
2019-04-30T02:29:35.790Z,5.12
2019-04-30T02:32:06.290Z,5.04
2019-04-30T02:34:44.378Z,4.98
2019-04-30T02:37:21.035Z,4.91
2019-04-30T02:39:50.840Z,4.83
2019-04-30T02:42:22.690Z,4.76
2019-04-30T02:44:53.094Z,4.65
2019-04-30T02:47:23.592Z,4.59
2019-04-30T02:50:10.549Z,4.51
2019-04-30T02:52:29.303Z,4.53
2019-04-30T02:55:00.221Z,4.46
2019-04-30T02:57:30.686Z,4.42
2019-04-30T03:00:20.741Z,4.45
2019-04-30T03:02:51.653Z,4.50
2019-04-30T03:05:22.122Z,4.55
2019-04-30T03:07:53.465Z,4.61
2019-04-30T03:10:24.235Z,4.66
2019-04-30T03:12:55.933Z,4.70
2019-04-30T03:15:30.691Z,4.72
2019-04-30T03:18:20.048Z,4.69
2019-04-30T03:21:29.043Z,4.68
2019-04-30T03:24:00.649Z,4.66
2019-04-30T03:26:31.302Z,4.63
2019-04-30T03:29:04.578Z,4.63
2019-04-30T03:31:35.073Z,4.67
2019-04-30T03:34:05.557Z,4.67
2019-04-30T03:36:36.586Z,4.65
2019-04-30T03:39:10.399Z,4.62
2019-04-30T03:41:41.533Z,4.63
2019-04-30T03:44:21.783Z,4.64
2019-04-30T03:46:44.266Z,4.69
2019-04-30T03:49:14.729Z,4.73
2019-04-30T03:51:45.561Z,4.72
2019-04-30T03:54:16.074Z,4.74
2019-04-30T03:56:49.898Z,4.75
2019-04-30T03:59:21.048Z,4.79
2019-04-30T04:02:01.956Z,4.83
2019-04-30T04:04:52.478Z,4.82
2019-04-30T04:07:40.959Z,4.83
2019-04-30T04:10:30.338Z,4.87
2019-04-30T04:13:03.330Z,4.80
2019-04-30T04:15:36.124Z,4.80
2019-04-30T04:18:10.664Z,4.82
2019-04-30T04:20:46.012Z,4.81
2019-04-30T04:23:19.230Z,4.85
2019-04-30T04:25:51.318Z,4.80
2019-04-30T04:28:24.590Z,4.84
2019-04-30T04:30:55.035Z,4.88
2019-04-30T04:33:29.648Z,4.88
2019-04-30T04:36:00.376Z,4.74
2019-04-30T04:38:30.831Z,4.58
2019-04-30T04:41:03.000Z,4.45
2019-04-30T04:43:33.424Z,4.43
2019-04-30T04:46:04.358Z,4.41
2019-04-30T04:48:34.827Z,4.40
2019-04-30T04:51:05.368Z,4.39
2019-04-30T04:53:50.004Z,4.43
2019-04-30T04:56:20.222Z,4.40
2019-04-30T04:58:50.758Z,4.33
2019-04-30T05:01:21.255Z,4.38
2019-04-30T05:03:51.692Z,4.42
2019-04-30T05:06:24.647Z,4.44
2019-04-30T05:08:55.093Z,4.47
2019-04-30T05:11:29.339Z,4.47
2019-04-30T05:14:00.267Z,4.49
2019-04-30T05:16:30.797Z,4.56
2019-04-30T05:19:01.828Z,4.56
2019-04-30T05:21:41.978Z,4.64
2019-04-30T05:24:04.514Z,4.70
2019-04-30T05:26:38.663Z,4.76
2019-04-30T05:29:09.585Z,4.81
2019-04-30T05:31:40.417Z,4.85
2019-04-30T05:34:10.890Z,4.90
2019-04-30T05:36:41.369Z,4.84
2019-04-30T05:39:11.840Z,4.86
2019-04-30T05:41:42.272Z,4.93
2019-04-30T05:44:13.251Z,4.94
2019-04-30T05:46:47.168Z,5.03
2019-04-30T05:49:18.892Z,5.16
2019-04-30T05:51:55.537Z,5.21
2019-04-30T05:54:22.125Z,5.28
2019-04-30T05:56:52.533Z,5.41
2019-04-30T05:59:24.279Z,5.52
2019-04-30T06:01:54.754Z,5.52
2019-04-30T06:04:25.181Z,5.62
2019-04-30T06:06:55.677Z,5.71
2019-04-30T06:09:54.660Z,5.79
2019-04-30T06:12:44.021Z,5.83
2019-04-30T06:15:21.716Z,5.79
2019-04-30T06:18:00.277Z,5.67
2019-04-30T06:20:25.607Z,5.85
2019-04-30T06:22:59.685Z,5.91
2019-04-30T06:25:37.249Z,6.01
2019-04-30T06:28:03.890Z,6.00
2019-04-30T06:30:34.331Z,5.92
2019-04-30T06:33:04.833Z,6.03
2019-04-30T06:35:35.546Z,6.18
2019-04-30T06:38:08.796Z,6.27
2019-04-30T06:40:39.258Z,6.16
2019-04-30T06:43:09.698Z,6.12
2019-04-30T06:45:42.239Z,5.99
2019-04-30T06:48:12.309Z,5.93
2019-04-30T06:50:49.184Z,6.03
2019-04-30T06:53:20.506Z,6.17
2019-04-30T06:55:51.534Z,6.22
2019-04-30T06:58:22.091Z,6.21
2019-04-30T07:00:52.770Z,6.31
2019-04-30T07:03:23.437Z,6.53
2019-04-30T07:06:08.392Z,6.68
2019-04-30T07:08:59.527Z,6.86
2019-04-30T07:11:33.928Z,7.10
2019-04-30T07:14:04.492Z,7.21
2019-04-30T07:16:37.193Z,6.92
2019-04-30T07:19:09.324Z,6.82
2019-04-30T07:21:45.359Z,6.90
2019-04-30T07:24:16.955Z,7.04
2019-04-30T07:27:01.015Z,7.23
2019-04-30T07:29:35.164Z,7.29
2019-04-30T07:32:06.094Z,7.31
2019-04-30T07:34:37.277Z,7.58
2019-04-30T07:37:17.042Z,7.70
2019-04-30T07:39:41.541Z,7.69
2019-04-30T07:42:15.243Z,7.96
2019-04-30T07:44:52.519Z,8.07
2019-04-30T07:47:23.097Z,8.21
2019-04-30T07:50:00.458Z,8.60
2019-04-30T07:52:33.295Z,8.63
2019-04-30T07:55:01.814Z,8.73
2019-04-30T07:57:40.430Z,8.72
2019-04-30T08:00:11.207Z,8.83
2019-04-30T08:02:50.499Z,8.94
2019-04-30T08:05:33.168Z,9.06
2019-04-30T08:08:20.628Z,8.80
2019-04-30T08:10:39.392Z,8.67
2019-04-30T08:13:14.385Z,8.65
2019-04-30T08:15:49.778Z,8.67
2019-04-30T08:18:19.555Z,8.65
2019-04-30T08:20:50.418Z,8.61
2019-04-30T08:23:34.077Z,8.53
2019-04-30T08:25:58.735Z,8.65
2019-04-30T08:28:31.097Z,8.72
2019-04-30T08:31:06.157Z,8.84
2019-04-30T08:33:37.556Z,9.00
2019-04-30T08:36:11.324Z,9.14
2019-04-30T08:38:42.056Z,9.21
2019-04-30T08:41:12.630Z,9.62
2019-04-30T08:43:49.480Z,9.95
2019-04-30T08:46:21.917Z,9.97
2019-04-30T08:48:53.898Z,9.95
2019-04-30T08:51:24.440Z,10.04
2019-04-30T08:53:55.568Z,10.18
2019-04-30T08:56:34.487Z,9.89
2019-04-30T08:59:05.163Z,9.73
2019-04-30T09:01:40.059Z,9.93
2019-04-30T09:04:17.688Z,9.84
2019-04-30T09:06:54.132Z,9.92
2019-04-30T09:09:26.235Z,9.80
2019-04-30T09:11:56.721Z,9.77
2019-04-30T09:14:31.227Z,10.22
2019-04-30T09:17:05.081Z,10.73
2019-04-30T09:19:38.649Z,10.90
2019-04-30T09:22:15.125Z,11.12
2019-04-30T09:24:45.079Z,11.28
2019-04-30T09:27:16.088Z,11.16
2019-04-30T09:29:49.189Z,11.21
2019-04-30T09:32:19.976Z,11.08
2019-04-30T09:34:50.905Z,11.46
2019-04-30T09:37:21.315Z,11.92
2019-04-30T09:39:53.804Z,12.33
2019-04-30T09:42:24.292Z,12.51
2019-04-30T09:44:57.173Z,12.68
2019-04-30T09:47:29.576Z,12.67
2019-04-30T09:49:59.785Z,12.88
2019-04-30T09:52:31.042Z,13.34
2019-04-30T09:55:04.030Z,13.67
2019-04-30T09:57:34.451Z,13.93
2019-04-30T10:00:09.405Z,13.85
2019-04-30T10:02:40.685Z,14.04
2019-04-30T10:05:15.736Z,14.28
2019-04-30T10:07:49.218Z,14.15
2019-04-30T10:10:22.737Z,14.54
2019-04-30T10:12:56.442Z,15.01
2019-04-30T10:15:35.627Z,14.95
2019-04-30T10:18:09.320Z,15.36
2019-04-30T10:20:51.851Z,15.66
2019-04-30T10:23:22.316Z,15.59
2019-04-30T10:25:52.979Z,15.79
2019-04-30T10:28:23.489Z,15.86
2019-04-30T10:30:54.178Z,15.69
2019-04-30T10:33:31.938Z,15.83
2019-04-30T10:36:01.503Z,15.96
2019-04-30T10:38:35.550Z,16.27
2019-04-30T10:41:05.808Z,16.27
2019-04-30T10:43:36.274Z,16.15
2019-04-30T10:46:07.209Z,16.51
2019-04-30T10:48:37.999Z,16.78
2019-04-30T10:51:13.124Z,16.91
2019-04-30T10:53:44.023Z,16.79
2019-04-30T10:56:14.558Z,16.46
2019-04-30T10:58:54.182Z,16.39
2019-04-30T11:01:26.852Z,15.80
2019-04-30T11:03:57.342Z,16.10
2019-04-30T11:06:30.001Z,16.42
2019-04-30T11:09:01.661Z,16.43
2019-04-30T11:11:35.128Z,16.37
2019-04-30T11:14:06.220Z,16.47
2019-04-30T11:16:37.225Z,16.48
2019-04-30T11:19:09.418Z,16.61
2019-04-30T11:21:43.472Z,16.84
2019-04-30T11:24:19.579Z,17.12
2019-04-30T11:26:51.299Z,16.79
2019-04-30T11:29:25.630Z,16.45
2019-04-30T11:32:05.435Z,16.68
2019-04-30T11:34:36.072Z,16.61
2019-04-30T11:37:07.773Z,16.36
2019-04-30T11:39:38.886Z,16.38
2019-04-30T11:42:09.731Z,16.34
2019-04-30T11:44:40.388Z,16.01
2019-04-30T11:47:52.634Z,16.05
2019-04-30T11:50:17.267Z,16.29
2019-04-30T11:53:05.794Z,16.34
2019-04-30T11:55:26.162Z,16.50
2019-04-30T11:57:56.651Z,16.55
2019-04-30T12:00:33.143Z,16.24
2019-04-30T12:03:09.063Z,16.09
2019-04-30T12:05:39.676Z,16.04
2019-04-30T12:08:26.515Z,16.32
2019-04-30T12:11:03.553Z,16.37
2019-04-30T12:13:34.766Z,16.18
2019-04-30T12:16:08.740Z,15.38
2019-04-30T12:18:44.090Z,15.21
2019-04-30T12:21:15.823Z,15.13
2019-04-30T12:23:46.885Z,15.58
2019-04-30T12:26:21.164Z,15.53
2019-04-30T12:28:51.898Z,15.47
2019-04-30T12:31:29.893Z,15.12
2019-04-30T12:34:00.387Z,14.98
2019-04-30T12:36:31.096Z,14.80
2019-04-30T12:39:05.305Z,14.63
2019-04-30T12:41:40.687Z,14.18
2019-04-30T12:44:11.734Z,14.08
2019-04-30T12:46:48.619Z,13.85
2019-04-30T12:49:23.842Z,13.65
2019-04-30T12:52:10.420Z,13.63
2019-04-30T12:54:49.555Z,13.53
2019-04-30T12:57:39.095Z,13.64
2019-04-30T13:00:11.087Z,13.51
2019-04-30T13:02:42.183Z,13.47
2019-04-30T13:05:14.178Z,13.41
2019-04-30T13:07:45.572Z,13.56
2019-04-30T13:10:26.798Z,13.74
2019-04-30T13:12:58.561Z,13.67
2019-04-30T13:15:30.106Z,13.56
2019-04-30T13:18:00.493Z,13.55
2019-04-30T13:20:32.421Z,13.57
2019-04-30T13:23:11.043Z,13.48
2019-04-30T13:25:50.568Z,13.40
2019-04-30T13:28:17.503Z,13.26
2019-04-30T13:30:51.461Z,13.23
2019-04-30T13:33:42.297Z,13.20
2019-04-30T13:36:25.453Z,13.31
2019-04-30T13:39:12.769Z,13.48
2019-04-30T13:41:51.028Z,13.59
2019-04-30T13:44:29.407Z,13.46
2019-04-30T13:47:03.639Z,13.51
2019-04-30T13:49:35.635Z,13.67
2019-04-30T13:52:08.856Z,13.65
2019-04-30T13:54:39.908Z,13.81
2019-04-30T13:57:10.643Z,13.91
2019-04-30T13:59:41.088Z,13.90
2019-04-30T14:02:15.089Z,13.64
2019-04-30T14:05:03.242Z,13.42
2019-04-30T14:08:04.717Z,13.65
2019-04-30T14:10:40.778Z,13.83
2019-04-30T14:13:30.446Z,13.81
2019-04-30T14:16:04.904Z,13.95
2019-04-30T14:18:35.558Z,13.96
2019-04-30T14:21:06.477Z,14.02
2019-04-30T14:23:42.111Z,14.07
2019-04-30T14:26:24.852Z,14.40
2019-04-30T14:29:00.455Z,14.59
2019-04-30T14:31:30.902Z,14.72
2019-04-30T14:34:01.396Z,14.88
2019-04-30T14:36:31.847Z,15.10
2019-04-30T14:39:13.418Z,15.12
2019-04-30T14:41:35.341Z,15.32
2019-04-30T14:44:25.836Z,15.57
2019-04-30T14:47:50.555Z,15.51
2019-04-30T14:50:33.711Z,15.40
2019-04-30T14:53:13.903Z,15.28
2019-04-30T14:56:13.089Z,15.31
2019-04-30T14:59:26.456Z,15.31
2019-04-30T15:02:01.501Z,15.58
2019-04-30T15:04:32.199Z,15.78
2019-04-30T15:07:09.683Z,15.79
2019-04-30T15:09:46.488Z,15.83
2019-04-30T15:12:19.232Z,15.86
2019-04-30T15:14:52.589Z,15.82
2019-04-30T15:17:28.890Z,15.77
2019-04-30T15:19:59.455Z,15.78
2019-04-30T15:22:31.190Z,15.58
2019-04-30T15:25:05.354Z,15.41
2019-04-30T15:27:45.054Z,15.39
2019-04-30T15:30:10.834Z,15.36
2019-04-30T15:32:43.801Z,15.17
2019-04-30T15:35:14.879Z,15.02
2019-04-30T15:37:48.627Z,15.05
2019-04-30T15:40:22.035Z,15.26
2019-04-30T15:42:54.179Z,15.49
2019-04-30T15:45:25.685Z,15.51
2019-04-30T15:47:56.239Z,15.40
2019-04-30T15:50:29.561Z,15.54
2019-04-30T15:53:09.349Z,15.25
2019-04-30T15:55:32.364Z,15.19
2019-04-30T15:58:18.646Z,15.33
2019-04-30T16:00:49.444Z,15.27
2019-04-30T16:03:27.447Z,15.27
2019-04-30T16:06:03.503Z,15.35
2019-04-30T16:08:45.984Z,15.34
2019-04-30T16:11:41.762Z,15.28
2019-04-30T16:14:34.621Z,15.32
2019-04-30T16:17:20.686Z,15.32
2019-04-30T16:19:51.265Z,14.95
2019-04-30T16:22:22.292Z,14.67
2019-04-30T16:24:54.647Z,14.51
2019-04-30T16:27:25.359Z,14.26
2019-04-30T16:29:59.520Z,14.22
2019-04-30T16:32:29.974Z,14.13
2019-04-30T16:35:00.677Z,13.96
2019-04-30T16:37:39.926Z,13.91
2019-04-30T16:40:12.747Z,13.76
2019-04-30T16:42:49.571Z,13.65
2019-04-30T16:45:19.642Z,13.45
2019-04-30T16:47:50.144Z,13.21
2019-04-30T16:50:20.723Z,13.02
2019-04-30T16:52:57.235Z,12.89
2019-04-30T16:55:27.928Z,12.83
2019-04-30T16:58:15.211Z,12.81
2019-04-30T17:00:49.133Z,12.73
2019-04-30T17:03:34.404Z,12.60
2019-04-30T17:06:15.743Z,12.49
2019-04-30T17:08:58.620Z,12.41
2019-04-30T17:11:48.713Z,12.33
2019-04-30T17:14:33.266Z,12.25
2019-04-30T17:17:11.325Z,12.17
2019-04-30T17:19:49.276Z,12.06
2019-04-30T17:22:22.252Z,11.98
2019-04-30T17:24:57.807Z,11.89
2019-04-30T17:27:29.377Z,11.78
2019-04-30T17:30:01.216Z,11.68
2019-04-30T17:32:31.906Z,11.57
2019-04-30T17:35:04.241Z,11.46
2019-04-30T17:37:41.471Z,11.35
2019-04-30T17:40:14.512Z,11.19
2019-04-30T17:43:09.817Z,11.05
2019-04-30T17:45:40.350Z,10.93
2019-04-30T17:48:12.333Z,10.73
2019-04-30T17:50:44.299Z,10.64
2019-04-30T17:53:19.085Z,10.49
2019-04-30T17:55:52.185Z,10.37
2019-04-30T17:58:22.814Z,10.23
2019-04-30T18:01:06.962Z,10.09
2019-04-30T18:03:41.223Z,9.96
2019-04-30T18:06:16.644Z,9.83
2019-04-30T18:08:52.017Z,9.69
2019-04-30T18:11:30.788Z,9.55
2019-04-30T18:14:09.794Z,9.46
2019-04-30T18:16:50.795Z,9.34
2019-04-30T18:19:35.336Z,9.22
2019-04-30T18:22:23.096Z,9.13
2019-04-30T18:25:23.362Z,9.01
2019-04-30T18:27:59.493Z,8.87
2019-04-30T18:30:36.088Z,8.76
2019-04-30T18:33:09.682Z,8.70
2019-04-30T18:35:41.225Z,8.63
2019-04-30T18:38:17.805Z,8.53
2019-04-30T18:40:59.446Z,8.43
2019-04-30T18:43:30.660Z,8.36
2019-04-30T18:46:04.842Z,8.24
2019-04-30T18:48:39.357Z,8.17
2019-04-30T18:51:32.890Z,8.11
2019-04-30T18:54:02.845Z,8.03
2019-04-30T18:56:34.725Z,7.89
2019-04-30T18:59:12.087Z,7.80
2019-04-30T19:01:47.472Z,7.73
2019-04-30T19:04:44.506Z,7.64
2019-04-30T19:07:40.681Z,7.56
2019-04-30T19:10:34.202Z,7.50
2019-04-30T19:13:27.484Z,7.41
2019-04-30T19:16:23.041Z,7.29
2019-04-30T19:19:14.809Z,7.20
2019-04-30T19:21:48.658Z,7.13
2019-04-30T19:24:21.304Z,7.05
2019-04-30T19:26:55.281Z,6.96
2019-04-30T19:29:27.348Z,6.88
2019-04-30T19:32:09.444Z,6.84
2019-04-30T19:34:43.519Z,6.77
2019-04-30T19:37:21.178Z,6.68
2019-04-30T19:39:53.428Z,6.60
2019-04-30T19:42:24.418Z,6.54
2019-04-30T19:44:59.744Z,6.47
2019-04-30T19:47:30.830Z,6.40
2019-04-30T19:50:01.759Z,6.45
2019-04-30T19:52:34.536Z,6.45
2019-04-30T19:55:05.522Z,6.37
2019-04-30T19:57:43.566Z,6.25
2019-04-30T20:00:11.687Z,6.17
2019-04-30T20:03:08.915Z,6.11
2019-04-30T20:05:44.697Z,6.02
2019-04-30T20:08:22.519Z,5.92
2019-04-30T20:10:59.392Z,5.86
2019-04-30T20:13:37.011Z,5.81
2019-04-30T20:16:09.784Z,5.75
2019-04-30T20:18:50.429Z,5.71
2019-04-30T20:21:45.334Z,5.66
2019-04-30T20:24:05.462Z,5.59
2019-04-30T20:26:36.193Z,5.54
2019-04-30T20:29:25.989Z,5.54
2019-04-30T20:31:59.002Z,5.51
2019-04-30T20:34:31.356Z,5.39
2019-04-30T20:37:04.381Z,5.32
2019-04-30T20:39:42.182Z,5.30
2019-04-30T20:42:18.351Z,5.19
2019-04-30T20:44:53.538Z,5.15
2019-04-30T20:47:24.702Z,5.12
2019-04-30T20:49:57.282Z,5.12
2019-04-30T20:52:32.420Z,5.05
2019-04-30T20:55:04.091Z,5.00
2019-04-30T20:57:43.159Z,4.92
2019-04-30T21:00:17.876Z,4.88
2019-04-30T21:02:49.713Z,4.87
2019-04-30T21:05:23.093Z,4.82
2019-04-30T21:07:59.096Z,4.76
2019-04-30T21:10:29.870Z,4.71
2019-04-30T21:13:11.333Z,4.67
2019-04-30T21:15:49.465Z,4.63
2019-04-30T21:18:19.827Z,4.55
2019-04-30T21:20:50.359Z,4.51
2019-04-30T21:23:24.744Z,4.48
2019-04-30T21:26:03.095Z,4.41
2019-04-30T21:28:33.541Z,4.39
2019-04-30T21:31:22.876Z,4.38
2019-04-30T21:34:01.149Z,4.34
2019-04-30T21:36:34.083Z,4.28
2019-04-30T21:39:08.839Z,4.23
2019-04-30T21:41:39.594Z,4.18
2019-04-30T21:44:10.345Z,4.17
2019-04-30T21:46:40.800Z,4.17
2019-04-30T21:49:11.261Z,4.14
2019-04-30T21:52:00.946Z,4.13
2019-04-30T21:54:38.774Z,4.07
2019-04-30T21:57:10.252Z,4.01
2019-04-30T21:59:41.798Z,3.99
2019-04-30T22:02:12.431Z,3.99
2019-04-30T22:04:46.302Z,4.00
2019-04-30T22:07:19.496Z,3.96
2019-04-30T22:09:53.141Z,3.90
2019-04-30T22:12:31.202Z,3.87
2019-04-30T22:15:04.392Z,3.86
2019-04-30T22:17:40.717Z,3.84
2019-04-30T22:20:19.133Z,3.78
2019-04-30T22:22:50.939Z,3.76
2019-04-30T22:25:29.192Z,3.69
2019-04-30T22:28:07.402Z,3.67
2019-04-30T22:30:44.160Z,3.66
2019-04-30T22:33:15.129Z,3.65
2019-04-30T22:35:58.860Z,3.64
2019-04-30T22:38:32.550Z,3.63
2019-04-30T22:41:05.648Z,3.63
2019-04-30T22:43:35.252Z,3.57
2019-04-30T22:46:11.672Z,3.52
2019-04-30T22:48:42.186Z,3.46
2019-04-30T22:51:19.393Z,3.45
2019-04-30T22:53:50.272Z,3.48
2019-04-30T22:56:21.144Z,3.48
2019-04-30T22:58:53.339Z,3.41
2019-04-30T23:01:41.204Z,3.42
2019-04-30T23:04:15.717Z,3.41
2019-04-30T23:06:55.250Z,3.36
2019-04-30T23:09:30.061Z,3.34
2019-04-30T23:12:05.134Z,3.34
2019-04-30T23:14:35.683Z,3.29
2019-04-30T23:17:06.615Z,3.32
2019-04-30T23:19:37.025Z,3.36
2019-04-30T23:22:07.498Z,3.35
2019-04-30T23:24:42.242Z,3.30
2019-04-30T23:27:22.467Z,3.29
2019-04-30T23:29:48.324Z,3.30
2019-04-30T23:32:19.517Z,3.29
2019-04-30T23:34:53.316Z,3.26
2019-04-30T23:37:26.164Z,3.24
2019-04-30T23:39:57.190Z,3.20
2019-04-30T23:42:30.500Z,3.18
2019-04-30T23:45:05.298Z,3.16
2019-04-30T23:47:40.204Z,3.14
2019-04-30T23:50:10.625Z,3.15
2019-04-30T23:52:48.978Z,3.11
2019-04-30T23:55:19.485Z,3.10
2019-04-30T23:57:50.014Z,3.08
